createdAt,value
2023-01-13T00:05:21.518Z,5.15
2023-01-13T00:15:27.601Z,5.14
2023-01-13T00:25:34.039Z,5.13
2023-01-13T00:35:39.870Z,5.09
2023-01-13T00:45:46.447Z,5.09
2023-01-13T00:55:59.551Z,5.11
2023-01-13T01:06:09.606Z,5.12
2023-01-13T01:16:18.455Z,5.05
2023-01-13T01:26:26.628Z,5.03
2023-01-13T01:36:32.422Z,5.06
2023-01-13T01:46:41.036Z,5.11
2023-01-13T01:56:48.085Z,5.14
2023-01-13T02:06:54.901Z,5.11
2023-01-13T02:17:19.503Z,5.06
2023-01-13T02:28:11.706Z,5.00
2023-01-13T02:38:22.292Z,4.96
2023-01-13T02:48:32.311Z,4.96
2023-01-13T02:58:40.695Z,4.93
2023-01-13T03:08:51.691Z,4.93
2023-01-13T03:19:13.740Z,4.97
2023-01-13T03:29:23.258Z,4.99
2023-01-13T03:39:34.158Z,5.00
2023-01-13T03:49:46.017Z,5.01
2023-01-13T03:59:56.285Z,5.02
2023-01-13T04:10:06.379Z,5.01
2023-01-13T04:20:13.756Z,5.03
2023-01-13T04:30:18.275Z,5.07
2023-01-13T04:40:24.256Z,5.09
2023-01-13T04:50:30.300Z,5.10
2023-01-13T05:00:37.287Z,5.11
2023-01-13T05:10:43.027Z,5.13
2023-01-13T05:20:48.878Z,5.16
2023-01-13T05:30:54.738Z,5.19
2023-01-13T05:41:20.312Z,5.23
2023-01-13T05:51:26.483Z,5.26
2023-01-13T06:01:32.246Z,5.27
2023-01-13T06:11:37.963Z,5.26
2023-01-13T06:21:44.896Z,5.21
2023-01-13T06:31:50.783Z,5.18
2023-01-13T06:42:14.781Z,5.13
2023-01-13T06:52:20.782Z,5.11
2023-01-13T07:02:28.021Z,5.12
2023-01-13T07:12:53.808Z,5.15
2023-01-13T07:23:00.168Z,5.21
2023-01-13T07:33:05.785Z,5.24
2023-01-13T07:43:30.902Z,5.29
2023-01-13T07:53:37.240Z,5.35
2023-01-13T08:03:43.176Z,5.41
2023-01-13T08:13:49.017Z,5.47
2023-01-13T08:23:55.315Z,5.58
2023-01-13T08:34:01.016Z,5.72
2023-01-13T08:44:09.227Z,5.92
2023-01-13T08:54:15.532Z,6.11
2023-01-13T09:04:23.689Z,6.32
2023-01-13T09:14:31.437Z,6.65
2023-01-13T09:24:37.307Z,7.00
2023-01-13T09:35:01.937Z,7.12
2023-01-13T09:45:11.950Z,7.19
2023-01-13T09:55:21.114Z,7.24
2023-01-13T10:05:35.782Z,7.31
2023-01-13T10:15:51.359Z,7.38
2023-01-13T10:26:08.146Z,7.47
2023-01-13T10:36:21.614Z,7.37
2023-01-13T10:46:28.248Z,7.30
2023-01-13T10:56:35.825Z,7.31
2023-01-13T11:06:48.151Z,7.32
2023-01-13T11:16:58.860Z,7.37
2023-01-13T11:27:09.467Z,7.62
2023-01-13T11:37:22.512Z,7.74
2023-01-13T11:47:30.191Z,7.68
2023-01-13T11:57:54.159Z,7.69
2023-01-13T12:08:13.707Z,7.77
2023-01-13T12:18:35.239Z,7.91
2023-01-13T12:28:50.113Z,7.96
2023-01-13T12:39:00.124Z,7.96
2023-01-13T12:49:19.100Z,7.96
2023-01-13T12:59:49.127Z,7.92
2023-01-13T13:10:01.463Z,7.86
2023-01-13T13:20:29.266Z,7.80
2023-01-13T13:30:40.488Z,7.78
2023-01-13T13:41:05.624Z,7.79
2023-01-13T13:51:27.200Z,7.80
2023-01-13T14:01:37.721Z,7.82
2023-01-13T14:11:44.573Z,7.78
2023-01-13T14:21:51.521Z,7.72
2023-01-13T14:31:58.594Z,7.67
2023-01-13T14:42:04.690Z,7.67
2023-01-13T14:52:17.809Z,7.69
2023-01-13T15:02:50.061Z,7.66
2023-01-13T15:12:59.322Z,7.60
2023-01-13T15:23:05.158Z,7.54
2023-01-13T15:33:14.701Z,7.49
2023-01-13T15:43:41.344Z,7.36
2023-01-13T15:53:47.141Z,7.29
2023-01-13T16:03:52.802Z,7.22
2023-01-13T16:13:58.646Z,7.14
2023-01-13T16:24:04.661Z,7.07
2023-01-13T16:34:10.418Z,7.02
2023-01-13T16:44:16.513Z,7.01
2023-01-13T16:54:22.208Z,6.98
2023-01-13T17:04:27.948Z,6.91
2023-01-13T17:14:33.676Z,6.80
2023-01-13T17:24:39.523Z,6.67
2023-01-13T17:34:45.983Z,6.57
2023-01-13T17:44:51.606Z,6.51
2023-01-13T17:54:57.359Z,6.44
2023-01-13T18:05:03.142Z,6.38
2023-01-13T18:15:10.643Z,6.35
2023-01-13T18:25:34.534Z,6.30
2023-01-13T18:35:42.016Z,6.22
2023-01-13T18:45:52.626Z,6.20
2023-01-13T18:55:58.406Z,6.20
2023-01-13T19:06:07.458Z,6.17
2023-01-13T19:16:13.552Z,6.12
2023-01-13T19:26:19.801Z,6.07
2023-01-13T19:36:26.950Z,5.96
2023-01-13T19:46:33.070Z,5.76
2023-01-13T19:56:38.718Z,5.55
2023-01-13T20:06:44.746Z,5.47
2023-01-13T20:16:50.898Z,5.47
2023-01-13T20:26:57.026Z,5.44
2023-01-13T20:37:02.885Z,5.33
2023-01-13T20:47:09.322Z,5.15
2023-01-13T20:57:15.799Z,4.94
2023-01-13T21:07:21.755Z,4.73
2023-01-13T21:17:45.138Z,4.66
2023-01-13T21:27:53.709Z,4.61
2023-01-13T21:37:59.832Z,4.50
2023-01-13T21:48:07.181Z,4.36
2023-01-13T21:58:14.738Z,4.26
2023-01-13T22:08:20.624Z,4.21
2023-01-13T22:18:26.292Z,4.13
2023-01-13T22:28:34.315Z,4.09
2023-01-13T22:38:40.558Z,4.04
2023-01-13T22:48:48.333Z,3.94
2023-01-13T22:58:57.946Z,3.88
2023-01-13T23:09:03.647Z,3.77
2023-01-13T23:19:11.209Z,3.68
2023-01-13T23:29:17.242Z,3.67
2023-01-13T23:39:24.598Z,3.69
2023-01-13T23:49:28.937Z,3.56
2023-01-13T23:59:34.657Z,3.47
